createdAt,value
2022-11-05T00:03:50.992Z,5.50
2022-11-05T00:09:13.192Z,7.20
2022-11-05T00:14:35.372Z,7.20
2022-11-05T00:19:38.530Z,7.60
2022-11-05T00:25:00.614Z,6.80
2022-11-05T00:30:04.313Z,5.50
2022-11-05T00:35:08.035Z,6.90
2022-11-05T00:40:13.041Z,7.10
2022-11-05T00:45:16.684Z,7.70
2022-11-05T00:50:22.536Z,7.00
2022-11-05T00:55:28.698Z,6.70
2022-11-05T01:00:34.987Z,7.60
2022-11-05T01:05:58.859Z,6.80
2022-11-05T01:11:34.013Z,7.70
2022-11-05T01:16:38.663Z,7.60
2022-11-05T01:21:41.821Z,6.50
2022-11-05T01:26:44.920Z,7.60
2022-11-05T01:31:48.707Z,5.90
2022-11-05T01:36:51.860Z,7.50
2022-11-05T01:41:55.122Z,7.00
2022-11-05T01:46:58.314Z,7.40
2022-11-05T01:52:05.631Z,8.00
2022-11-05T01:57:10.963Z,7.20
2022-11-05T02:02:14.525Z,7.40
2022-11-05T02:07:18.475Z,6.90
2022-11-05T02:12:24.551Z,7.20
2022-11-05T02:17:40.017Z,7.40
2022-11-05T02:23:11.230Z,6.50
2022-11-05T02:28:52.744Z,7.30
2022-11-05T02:34:22.078Z,7.50
2022-11-05T02:39:47.570Z,7.70
2022-11-05T02:45:11.325Z,6.60
2022-11-05T02:50:49.631Z,6.70
2022-11-05T02:56:06.200Z,6.60
2022-11-05T03:01:12.896Z,6.10
2022-11-05T03:06:53.779Z,7.10
2022-11-05T03:12:12.640Z,7.80
2022-11-05T03:17:39.577Z,6.70
2022-11-05T03:23:05.582Z,7.00
2022-11-05T03:28:12.392Z,6.20
2022-11-05T03:33:21.352Z,7.10
2022-11-05T03:38:32.901Z,7.90
2022-11-05T03:43:42.011Z,9.20
2022-11-05T03:48:49.600Z,7.20
2022-11-05T03:53:58.342Z,8.30
2022-11-05T03:59:03.831Z,7.80
2022-11-05T04:04:08.503Z,7.90
2022-11-05T04:09:30.251Z,9.20
2022-11-05T04:14:34.123Z,8.80
2022-11-05T04:19:58.833Z,8.10
2022-11-05T04:25:02.231Z,8.90
2022-11-05T04:30:20.581Z,8.40
2022-11-05T04:35:24.628Z,9.00
2022-11-05T04:40:28.566Z,9.90
2022-11-05T04:45:37.141Z,8.00
2022-11-05T04:50:40.480Z,10.00
2022-11-05T04:55:43.636Z,8.60
2022-11-05T05:00:49.533Z,7.80
2022-11-05T05:05:53.923Z,10.50
2022-11-05T05:11:02.503Z,10.00
2022-11-05T05:16:17.548Z,9.90
2022-11-05T05:21:41.806Z,12.30
2022-11-05T05:26:48.332Z,8.80
2022-11-05T05:31:51.682Z,9.00
2022-11-05T05:36:54.965Z,10.80
2022-11-05T05:41:58.190Z,11.70
2022-11-05T05:47:01.324Z,11.70
2022-11-05T05:52:05.252Z,14.00
2022-11-05T05:57:08.437Z,12.00
2022-11-05T06:02:12.965Z,14.00
2022-11-05T06:07:16.513Z,12.60
2022-11-05T06:12:20.771Z,13.20
2022-11-05T06:17:23.965Z,14.60
2022-11-05T06:22:27.181Z,11.40
2022-11-05T06:27:30.425Z,13.60
2022-11-05T06:32:34.003Z,14.10
2022-11-05T06:37:37.214Z,14.10
2022-11-05T06:42:40.358Z,12.80
2022-11-05T06:47:43.564Z,14.60
2022-11-05T06:53:00.277Z,13.90
2022-11-05T06:58:04.572Z,14.40
2022-11-05T07:03:11.383Z,14.00
2022-11-05T07:08:15.567Z,13.80
2022-11-05T07:13:18.690Z,14.30
2022-11-05T07:18:22.018Z,14.20
2022-11-05T07:23:26.522Z,13.60
2022-11-05T07:28:29.672Z,13.40
2022-11-05T07:33:36.535Z,13.50
2022-11-05T07:38:40.237Z,14.60
2022-11-05T07:43:43.389Z,14.60
2022-11-05T07:48:46.664Z,16.00
2022-11-05T07:53:49.886Z,16.30
2022-11-05T07:58:53.098Z,15.40
2022-11-05T08:03:56.323Z,12.40
2022-11-05T08:08:59.459Z,14.00
2022-11-05T08:14:02.740Z,16.00
2022-11-05T08:19:05.984Z,14.90
2022-11-05T08:24:09.743Z,18.80
2022-11-05T08:29:13.756Z,18.50
2022-11-05T08:34:17.201Z,18.30
2022-11-05T08:39:20.667Z,18.70
2022-11-05T08:44:24.361Z,17.50
2022-11-05T08:49:29.586Z,16.60
2022-11-05T08:54:33.136Z,19.30
2022-11-05T08:59:37.377Z,18.00
2022-11-05T09:04:41.289Z,20.40
2022-11-05T09:09:44.517Z,17.50
2022-11-05T09:14:47.759Z,19.00
2022-11-05T09:19:50.953Z,17.80
2022-11-05T09:24:54.261Z,18.10
2022-11-05T09:29:57.487Z,17.90
2022-11-05T09:35:01.475Z,18.00
2022-11-05T09:40:06.518Z,18.90
2022-11-05T09:45:19.827Z,18.50
2022-11-05T09:50:32.858Z,17.60
2022-11-05T09:55:42.242Z,18.30
2022-11-05T10:00:53.126Z,16.40
2022-11-05T10:06:09.191Z,18.30
2022-11-05T10:11:33.382Z,15.80
2022-11-05T10:16:41.201Z,15.80
2022-11-05T10:22:05.430Z,18.20
2022-11-05T10:27:15.445Z,16.80
2022-11-05T10:32:38.512Z,14.60
2022-11-05T10:37:41.679Z,19.10
2022-11-05T10:42:52.682Z,16.60
2022-11-05T10:48:05.922Z,18.80
2022-11-05T10:53:16.844Z,15.70
2022-11-05T10:58:20.086Z,14.90
2022-11-05T11:03:44.619Z,16.60
2022-11-05T11:08:50.197Z,16.60
2022-11-05T11:14:06.206Z,18.00
2022-11-05T11:19:31.630Z,18.40
2022-11-05T11:24:40.937Z,19.50
2022-11-05T11:29:49.697Z,18.80
2022-11-05T11:34:55.313Z,18.20
2022-11-05T11:40:22.929Z,17.00
2022-11-05T11:45:38.521Z,16.90
2022-11-05T11:50:44.604Z,16.40
2022-11-05T11:56:05.080Z,17.10
2022-11-05T12:01:17.501Z,17.20
2022-11-05T12:06:38.899Z,16.20
2022-11-05T12:11:51.015Z,15.00
2022-11-05T12:17:12.255Z,15.00
2022-11-05T12:22:41.427Z,13.20
2022-11-05T12:28:09.368Z,12.50
2022-11-05T12:33:48.214Z,13.00
2022-11-05T12:39:07.240Z,12.90
2022-11-05T12:44:29.349Z,12.00
2022-11-05T12:49:59.787Z,12.40
2022-11-05T12:55:18.636Z,11.00
2022-11-05T13:00:27.268Z,12.00
2022-11-05T13:05:36.528Z,10.90
2022-11-05T13:10:55.784Z,11.00
2022-11-05T13:16:13.399Z,10.50
2022-11-05T13:21:19.379Z,11.30
2022-11-05T13:26:43.778Z,11.20
2022-11-05T13:32:21.824Z,10.80
2022-11-05T13:37:49.894Z,11.60
2022-11-05T13:42:59.530Z,10.40
2022-11-05T13:48:22.828Z,10.80
2022-11-05T13:53:43.173Z,10.60
2022-11-05T13:59:00.878Z,10.70
2022-11-05T14:04:05.172Z,10.50
2022-11-05T14:09:11.288Z,10.50
2022-11-05T14:14:30.745Z,11.70
2022-11-05T14:20:01.379Z,12.00
2022-11-05T14:25:20.441Z,10.30
2022-11-05T14:30:44.168Z,10.90
2022-11-05T14:35:48.625Z,11.10
2022-11-05T14:41:03.429Z,11.80
2022-11-05T14:46:08.436Z,11.10
2022-11-05T14:51:27.354Z,12.50
2022-11-05T14:56:43.800Z,11.90
2022-11-05T15:01:48.002Z,12.90
2022-11-05T15:07:03.745Z,13.30
2022-11-05T15:12:13.422Z,12.10
2022-11-05T15:17:24.065Z,11.30
2022-11-05T15:22:31.439Z,12.50
2022-11-05T15:27:52.956Z,14.10
2022-11-05T15:33:19.112Z,13.00
2022-11-05T15:38:27.321Z,13.70
2022-11-05T15:43:30.689Z,12.90
2022-11-05T15:48:36.765Z,11.30
2022-11-05T15:54:08.777Z,13.30
2022-11-05T15:59:22.373Z,15.00
2022-11-05T16:04:30.620Z,14.10
2022-11-05T16:09:36.732Z,12.00
2022-11-05T16:14:41.122Z,12.00
2022-11-05T16:19:46.401Z,12.70
2022-11-05T16:24:50.027Z,13.90
2022-11-05T16:29:56.425Z,12.80
2022-11-05T16:35:02.594Z,10.20
2022-11-05T16:40:21.528Z,13.00
2022-11-05T16:45:25.628Z,12.40
2022-11-05T16:50:32.311Z,12.50
2022-11-05T16:55:38.902Z,12.60
2022-11-05T17:00:42.119Z,13.60
2022-11-05T17:05:45.435Z,14.30
2022-11-05T17:10:48.756Z,11.00
2022-11-05T17:15:52.811Z,10.40
2022-11-05T17:20:58.816Z,12.70
2022-11-05T17:26:08.768Z,12.20
2022-11-05T17:31:14.034Z,13.20
2022-11-05T17:36:17.777Z,18.20
2022-11-05T17:41:23.503Z,21.10
2022-11-05T17:46:26.640Z,21.40
2022-11-05T17:51:30.660Z,20.10
2022-11-05T17:56:41.747Z,20.00
2022-11-05T18:01:47.701Z,18.90
2022-11-05T18:06:51.243Z,19.20
2022-11-05T18:11:54.467Z,18.70
2022-11-05T18:17:00.552Z,11.60
2022-11-05T18:22:03.683Z,15.10
2022-11-05T18:27:06.874Z,14.60
2022-11-05T18:32:10.012Z,15.90
2022-11-05T18:37:13.241Z,14.60
2022-11-05T18:42:16.393Z,14.00
2022-11-05T18:47:19.623Z,14.40
2022-11-05T18:52:22.856Z,12.80
2022-11-05T18:57:26.206Z,12.10
2022-11-05T19:02:29.464Z,10.50
2022-11-05T19:07:36.516Z,9.30
2022-11-05T19:12:40.638Z,8.80
2022-11-05T19:17:43.932Z,10.40
2022-11-05T19:22:47.187Z,9.40
2022-11-05T19:27:50.423Z,9.20
2022-11-05T19:32:53.535Z,10.00
2022-11-05T19:37:56.835Z,10.50
2022-11-05T19:43:00.023Z,10.60
2022-11-05T19:48:03.207Z,10.30
2022-11-05T19:53:06.970Z,11.00
2022-11-05T19:58:10.957Z,14.20
2022-11-05T20:03:14.680Z,17.40
2022-11-05T20:08:18.007Z,15.00
2022-11-05T20:13:21.559Z,12.20
2022-11-05T20:18:26.039Z,12.60
2022-11-05T20:23:29.980Z,9.70
2022-11-05T20:28:35.081Z,10.50
2022-11-05T20:33:39.434Z,9.90
2022-11-05T20:38:43.317Z,10.90
2022-11-05T20:43:48.258Z,12.20
2022-11-05T20:48:52.388Z,11.80
2022-11-05T20:53:58.294Z,13.90
2022-11-05T20:59:02.341Z,13.20
2022-11-05T21:04:07.576Z,12.80
2022-11-05T21:09:11.573Z,10.70
2022-11-05T21:14:15.009Z,11.20
2022-11-05T21:19:18.276Z,12.00
2022-11-05T21:24:21.853Z,12.10
2022-11-05T21:29:25.123Z,13.30
2022-11-05T21:34:28.382Z,12.60
2022-11-05T21:39:34.358Z,12.50
2022-11-05T21:44:40.261Z,13.90
2022-11-05T21:49:43.444Z,10.70
2022-11-05T21:55:05.815Z,9.30
2022-11-05T22:00:11.552Z,7.70
2022-11-05T22:05:15.316Z,9.20
2022-11-05T22:10:18.589Z,9.40
2022-11-05T22:15:22.967Z,10.00
2022-11-05T22:20:26.143Z,10.30
2022-11-05T22:25:29.300Z,10.60
2022-11-05T22:30:36.876Z,10.50
2022-11-05T22:35:41.106Z,9.60
2022-11-05T22:40:44.208Z,11.20
2022-11-05T22:45:47.381Z,10.50
2022-11-05T22:50:50.727Z,10.10
2022-11-05T22:55:54.166Z,13.00
2022-11-05T23:00:58.134Z,11.60
2022-11-05T23:06:26.907Z,11.00
2022-11-05T23:11:35.958Z,9.50
2022-11-05T23:16:59.210Z,10.20
2022-11-05T23:22:21.313Z,10.30
2022-11-05T23:27:24.935Z,10.00
2022-11-05T23:32:31.341Z,9.00
2022-11-05T23:37:53.376Z,7.20
2022-11-05T23:43:17.120Z,7.60
2022-11-05T23:48:29.393Z,9.00
2022-11-05T23:53:35.217Z,9.70
2022-11-05T23:58:39.793Z,11.40
